Flight Track Log - Related Links

Times and Time Zones

All times are in EDT time to prevent confusion due to time zone crossing. See the CNS33 flight status page for this flight to view local times or setup timezone preferences in your user account.

Time Position Orientation Groundspeed Altitude Reporting Facility
EDT Latitude Longitude Course Direction KTS MPH feet Rate Location/Type
02:20PM 40.2167 -75.5667 123° Southeast 167 192 3,000  Level Philadelphia TRACON
02:22PM 40.1833 -75.5000 123° Southeast 204 235 3,000 677 Level Philadelphia TRACON
02:23PM 40.1833 -75.4333 90° East 153 176 4,500 952 Climbing Philadelphia TRACON
02:24PM 40.1833 -75.3667 90° East 184 212 5,000 229 Climbing Philadelphia TRACON
02:25PM 40.1833 -75.3000 90° East 207 238 5,000  Level Philadelphia TRACON
02:26PM 40.1833 -75.2333 90° East 198 228 5,000  Level Philadelphia TRACON
02:27PM 40.1500 -75.1667 123° Southeast 208 239 5,000  Level Philadelphia TRACON
02:28PM 40.1167 -75.1167 131° Southeast 190 219 5,000  Level Philadelphia TRACON
02:29PM 40.0833 -75.0667 131° Southeast 178 205 5,000  Level Philadelphia TRACON
02:30PM 40.1000 -75.0000 72° East 181 208 5,000  Level Philadelphia TRACON
02:31PM 40.0500 -74.9833 166° South 229 264 5,000 500 Level Philadelphia TRACON
02:32PM 40.0333 -75.0667 255° West 222 255 6,000 900 Climbing Philadelphia TRACON
02:33PM 40.0167 -75.1500 255° West 214 246 6,800 952 Climbing Philadelphia TRACON
02:34PM 40.0000 -75.2333 255° West 214 246 8,000 1,048 Climbing Philadelphia TRACON
02:35PM 39.9833 -75.3000 252° West 200 230 9,000 496 Climbing Philadelphia TRACON
02:36PM 39.9733 -75.3811 261° West 236 272 9,000  Level New York Center
02:37PM 39.9592 -75.4778 259° West 250 288 9,000  Level New York Center
02:38PM 39.9394 -75.5550 252° West 278 320 9,000  Level New York Center
02:39PM 39.9233 -75.6403 256° West 270 311 9,000  Level New York Center
02:40PM 39.9153 -75.7319 263° West 258 297 9,000 149 Level New York Center
02:41PM 39.9158 -75.8158 271° West 253 291 9,300 1,006 Climbing New York Center
02:43PM 39.9114 -75.9672 268° West 211 243 12,000 1,315 Climbing New York Center
02:44PM 39.9103 -76.0428 269° West 206 237 13,200 1,109 Climbing New York Center
02:45PM 39.9089 -76.1186 269° West 211 243 14,200 1,041 Climbing New York Center
02:46PM 39.9075 -76.1942 269° West 216 249 15,300 992 Climbing New York Center
02:47PM 39.9100 -76.2728 272° West 216 249 16,200 850 Climbing New York Center
02:48PM 39.9150 -76.3464 275° West 216 249 17,000 793 Climbing New York Center
02:49PM 39.9275 -76.4339 281° West 221 254 17,800 836 Climbing New York Center
02:50PM 39.9158 -76.5036 258° West 216 249 18,700 756 Climbing New York Center
02:51PM 39.9181 -76.5850 272° West 216 249 19,300 756 Climbing New York Center
02:52PM 39.9331 -76.6619 284° West 216 249 20,200 893 Climbing New York Center
02:53PM 39.9311 -76.7403 268° West 221 254 21,100 800 Climbing New York Center
02:54PM 39.9250 -76.8183 264° West 216 249 21,800 610 Climbing New York Center
02:55PM 39.9314 -76.8975 276° West 216 249 22,300 555 Climbing New York Center
02:56PM 39.9375 -76.9792 276° West 221 254 22,900 694 Climbing New York Center
02:57PM 39.9375 -77.0606 270° West 221 254 23,700 645 Climbing New York Center
02:58PM 39.9436 -77.1394 276° West 221 254 24,200 548 Climbing New York Center
03:00PM 39.9511 -77.3086 273° West 215 247 25,400 584 Climbing Cleveland Center
03:01PM 39.9514 -77.3844 270° West 215 247 26,000 300 Climbing Cleveland Center
03:02PM 39.9597 -77.4628 278° West 215 247 26,000  Level Cleveland Center
03:03PM 39.9600 -77.5494 270° West 220 253 26,000  Level Cleveland Center
03:04PM 39.9644 -77.6386 274° West 239 275 26,000  Level Cleveland Center
03:05PM 39.9669 -77.7333 272° West 250 288 26,000  Level Cleveland Center
03:06PM 39.9711 -77.8253 273° West 250 288 26,000  Level Cleveland Center
03:07PM 39.9736 -77.9200 272° West 255 293 26,000  Level Cleveland Center
03:08PM 39.9736 -78.0122 270° West 255 293 26,000  Level Cleveland Center
03:09PM 39.9775 -78.1042 273° West 255 293 26,000  Level Cleveland Center
03:10PM 39.9817 -78.1933 274° West 255 293 26,000  Level Cleveland Center
03:11PM 39.9814 -78.2772 270° West 255 293 26,000  Level Cleveland Center
03:12PM 39.9831 -78.3639 271° West 250 288 26,000  Level Cleveland Center
03:13PM 39.9828 -78.4561 270° West 250 288 26,000  Level Cleveland Center
03:14PM 39.9844 -78.5456 271° West 250 288 26,000  Level Cleveland Center
03:15PM 39.9881 -78.6347 273° West 250 288 26,000  Level Cleveland Center
03:16PM 39.9917 -78.7242 273° West 250 288 26,000  Level Cleveland Center
03:17PM 39.9908 -78.8164 269° West 250 288 26,000  Level Cleveland Center
03:18PM 39.9922 -78.9058 271° West 250 288 26,000  Level Cleveland Center
03:19PM 40.0000 -79.0058 276° West 257 296 26,000  Level Cleveland Center
03:20PM 40.0011 -79.0953 271° West 257 296 26,000  Level Cleveland Center
03:21PM 40.0019 -79.1631 271° West 250 288 26,000  Level Cleveland Center
03:22PM 40.0033 -79.2606 271° West 245 282 26,000  Level Cleveland Center
03:23PM 40.0042 -79.3472 271° West 245 282 26,000  Level Cleveland Center
03:24PM 40.0072 -79.4394 273° West 250 288 26,000  Level Cleveland Center
03:25PM 40.0081 -79.5261 271° West 250 288 26,000  Level Cleveland Center
03:26PM 40.0111 -79.6181 273° West 250 288 26,000  Level Cleveland Center
03:27PM 40.0117 -79.7075 270° West 250 288 26,000  Level Cleveland Center
03:28PM 40.0122 -79.7969 270° West 250 288 26,000  Level Cleveland Center
03:29PM 40.0131 -79.8892 271° West 250 288 26,000 -150 Level Cleveland Center
03:30PM 40.0156 -79.9814 272° West 250 288 25,700 -600 Descending Cleveland Center
03:31PM 40.0161 -80.0817 270° West 260 299 24,800 -950 Descending Cleveland Center
03:32PM 40.0164 -80.1872 270° West 274 315 23,800 -1,000 Descending Cleveland Center
03:33PM 40.0189 -80.2983 272° West 296 341 22,800 -850 Descending Cleveland Center
03:34PM 40.0192 -80.4069 270° West 301 346 22,100 -400 Descending Cleveland Center
03:35PM 40.0192 -80.5072 270° West 296 341 22,000 -50 Descending Cleveland Center
03:36PM 40.0192 -80.6075 270° West 286 329 22,000  Level Cleveland Center
03:37PM 40.0108 -80.7022 263° West 280 322 22,000 -50 Level Cleveland Center
03:38PM 39.9961 -80.7972 259° West 275 316 21,900 -550 Descending Cleveland Center
03:39PM 39.9769 -80.8972 256° West 275 316 20,900 -900 Descending Cleveland Center
03:40PM 39.9600 -81.0028 258° West 294 338 20,100 -465 Descending Cleveland Center
03:41PM 39.9328 -81.1456 256° West 296 341 19,800 -833 Descending Indianapolis Center
03:42PM 39.9167 -81.2500 259° West 294 338 18,100 -1,306 Descending Indianapolis Center
03:43PM 39.9092 -81.3794 266° West 298 343 17,100 -968 Descending Indianapolis Center
03:44PM 39.8978 -81.4822 262° West 297 342 16,100 -919 Descending Indianapolis Center
03:45PM 39.8789 -81.5875 257° West 295 339 15,200 -968 Descending Indianapolis Center
03:46PM 39.8614 -81.6928 258° West 296 341 14,100 -1,016 Descending Indianapolis Center
03:47PM 39.8386 -81.7933 254° West 290 334 13,100 -960 Descending Indianapolis Center
03:49PM 39.8181 -81.8947 255° West 287 330 12,100 -1,104 Descending Indianapolis Center
03:50PM 39.8017 -82.0164 260° West 290 334 10,800 -968 Descending Indianapolis Center
03:51PM 39.7636 -82.1028 240° Southwest 274 315 10,100 -313 Descending Indianapolis Center
03:52PM 39.7431 -82.1950 254° West 215 247 10,100 -339 Level Indianapolis Center
03:53PM 39.7322 -82.2611 258° West 223 257 9,400 -1,000 Descending Indianapolis Center
03:54PM 39.7144 -82.3467 255° West 237 273 8,200 -1,113 Descending Indianapolis Center
03:55PM 39.6958 -82.4328 254° West 243 280 7,100 -1,113 Descending Indianapolis Center
03:56PM 39.6772 -82.5153 254° West 238 274 5,900 -1,161 Descending Indianapolis Center
03:57PM 39.6603 -82.5936 254° West 229 264 4,700 -871 Descending Indianapolis Center
03:58PM 39.6408 -82.6783 253° West 212 244 4,100 -290 Descending Indianapolis Center
03:59PM 39.6347 -82.7472 263° West 196 226 4,100  Level Indianapolis Center
03:59PM 39.6328 -82.7736 265° West 189 217 4,100  Level Indianapolis Center
04:00PM 39.6283 -82.8169 262° West 194 223 4,100 -58 Level Indianapolis Center
04:01PM 39.6186 -82.8911 260° West 195 224 4,000  Descending Indianapolis Center
04:02PM 39.6094 -82.9658 261° West 201 231 4,100 -50 Climbing Indianapolis Center
04:03PM 39.6067 -83.0386 267° West 204 235 3,900 -476 Descending Indianapolis Center
04:04PM 39.6433 -83.0883 314° West 204 235 3,100 -393 Descending Indianapolis Center
04:05PM 39.6911 -83.0861 North 140 161 3,100  Level Indianapolis Center
04:06PM 39.7161 -83.0592 40° Northeast 117 135 3,100 -248 Level Indianapolis Center
04:07PM 39.7392 -83.0294 45° Northeast 118 136 2,600 -496 Descending Indianapolis Center
04:08PM 39.7619 -82.9994 45° Northeast 109 125 2,100 -590 Descending Indianapolis Center
04:09PM 39.7828 -82.9719 45° Northeast 112 129 1,400 -406 Descending Indianapolis Center
04:10PM 39.8058 -82.9411 46° Northeast 112 129 1,200  Descending Indianapolis Center
04:11PM 39.8172 -82.9272 43° Northeast 101 116 1,400 960 Climbing Indianapolis Center
04:11PM 39.8222 -82.9142 63° Northeast 116 133 2,000 1,129 Climbing Indianapolis Center
04:12PM 39.7936 -82.8728 132° Southeast 174 200 3,000 446 Climbing Indianapolis Center
04:13PM 39.7497 -82.8706 178° South 188 216 2,900 -49 Descending Indianapolis Center
04:14PM 39.7536 -82.9389 274° West 186 214 2,900  Level Indianapolis Center
04:15PM 39.7456 -82.9950 259° West 170 196 2,900  Level Indianapolis Center
04:16PM 39.7292 -83.0525 250° West 182 209 2,900  Level Indianapolis Center
04:17PM 39.6925 -83.0972 223° Southwest 171 197 2,900  Level Indianapolis Center
04:18PM 39.6461 -83.1025 185° South 170 196 2,900  Level Indianapolis Center
04:19PM 39.6069 -83.1225 201° Southwest 189 217 2,900 52 Level Indianapolis Center
04:20PM 39.6328 -83.1417 330° Northwest 147 169 3,000  Climbing Indianapolis Center
04:21PM 39.6669 -83.1050 40° Northeast 139 160 2,900 -47 Descending Indianapolis Center
04:22PM 39.6981 -83.0761 36° Northeast 138 159 2,900 -197 Level Indianapolis Center
04:23PM 39.7281 -83.0361 46° Northeast 147 169 2,500 -344 Descending Indianapolis Center
04:24PM 39.7553 -83.0069 39° Northeast 132 152 2,200 -472 Descending Indianapolis Center
04:25PM 39.7781 -82.9797 43° Northeast 103 119 1,500 -614 Descending Indianapolis Center
04:26PM 39.7989 -82.9522 45° Northeast 100 115 900 -590 Descending Indianapolis Center

Login

Don't have an account? Register now (free) for customized features, flight alerts, and more!